Rechercher aéroport 
image banner adimage banner adimage banner ad
image banner ad

5CA7 - Agro-West

Situé à Five Points, United States

ICAO - 5CA7, IATA -

Données fournies par Airmate  

Information générale

Coordonnées: N36°20'10" W120°14'51"
Élévation : 335 feet MSL.
Variation magnétique : 15° East
Voir autres Aéroports à California

Données opérationnelles

Special qualification required
Heure actuelle UTC:
Heure actuelle locale:
Météo à : KNLC - Lemoore Nas (Reeves Fld) ( 26 km )
METAR: KNLC 292356Z 36011KT 10SM FEW050 SCT130 BKN220 40/12 A2979 RMK SLP084 RH/19 T04000122 10411 20333 58020
TAF: TAF KNLC 2923/3023 01009KT 9999 FEW050 SCT130 BKN220 QNH2973INS TEMPO 3000/3006 33008KT SCT220 FM300600 VRB06KT 9999 SCT220 QNH2971INS T23/3014Z T41/3023Z FS30012
Voir NOTAMs / SUP AIP / TFR affectant cet aéroport [VIEW]
Fréquences de communication: [VIEW]

Pistes:

Identifiant RWYQFULongueur (ft)Largeur (ft)SurfaceLDA (ft)
16300040ASPH
34300040ASPH

Coordonnées de l'aéroport

Adresse: Five Points United States

Vue satellite de 5CA7